Gonvick, MN (56644)

1:18 PM CST on December 06, 2016 (GMT -0600)
Fosston Municipal | | Change Station
Active Advisory: Winter Storm Warning Active Notice: Public Information Statement

Elev 1276 ft 47.59 °N, 95.77 °W | Updated 4 minutes ago

Overcast
Overcast
25 °F
Feels Like 15 °F
N
10
Wind Variable Wind from West

Today
High -- | Low -- °F
--% Chance of Precip.
Yesterday
High -- | Low -- °F
Precip. -- in
Pressure 29.25 in
Visibility 7.0 miles
Clouds Scattered Clouds 800 ft
Overcast 1400 ft
Windchill 15 °F
Dew Point 21 °F
Humidity 86%
Rainfall 0.00 in
Snow Depth Not available.
7:56 AM 4:30 PM
Waxing Crescent, 44% visible
METAR KFSE 061914Z AUTO 28009KT 7SM SCT008 OVC014 M04/M06 A2925 RMK AO2
Pressure 29.25 in
Visibility 7.0 miles
Clouds Scattered Clouds 800 ft
Overcast 1400 ft
Windchill 15 °F
Dew Point 21 °F
Humidity 86%
Rainfall 0.00 in
Snow Depth Not available.
7:56 AM 4:30 PM
Waxing Crescent, 44% visible
METAR KFSE 061914Z AUTO 28009KT 7SM SCT008 OVC014 M04/M06 A2925 RMK AO2

10-Day Weather Forecast

Almanac

Astronomy

Dec. 06, 2016 Rise Set
Actual Time
Civil Twilight
Nautical Twilight
Astronomical Twilight
Moon
Length of Visible Light
Length of Day
Tomorrow will be .
, % of the Moon is Illuminated

Today's Extremes

State Highs State Lows

Community

WunderPhotos

Upload Photos

1,956,015 photos uploaded!

WunderBlog® & News

Nearby

Air Quality

  Air Quality AQ Index Pollutant
Not available.

Snow Depth

Station Depth Elevation

Earthquake Activity

City Distance Mag. Time & Date
Minimum magnitude displayed is 2.5.

Coastal Water Temperatures

Place Temperature

Stations

Nearby Weather Stations

Station Location Temp. Windchill Dew Point Humidity Wind Precip. Elev Updated Type
                   

Watches & Warnings

Winter Storm Warning
Issued: 12:05 PM CST Dec. 6, 2016 – National Weather Service

... Winter Storm Warning remains in effect until midnight CST
tonight...

* timing... periodic snow will continue through the day and
continue into tonight.

* Snow accumulations... 6 to 8 inches.

Precautionary/preparedness actions...

A Winter Storm Warning for heavy snow means severe winter weather
conditions are expected or occurring. Significant amounts of snow
are forecast that will make travel dangerous. Only travel in an
emergency. If you must travel... keep an extra flashlight...
food... and water in your vehicle in case of an emergency.